Terminal Aerodrome Forecast
Issued by NWS Jackson, MS

Home | Current Version | Previous Version | Text Only | Print | Product List | Glossary On
Versions: 1 2 3 4 5 6 7 8 9 10 11 12 13 14 15 16 17 18 19 20 21
512
FTUS44 KJAN 271120
TAFHBG
TAF
KHBG 271120Z 2712/2812 19007KT P6SM -SHRA SCT015 BKN035
     FM271400 20011KT P6SM VCSH SCT015 BKN025
     FM271700 20012G20KT P6SM VCTS BKN035 BKN050CB
     FM272200 20010KT P6SM SCT035 BKN050
     FM280900 19005KT P6SM SCT007 SCT015=

USA.gov is the U.S. government's official web portal to all federal, state and local government web resources and services.